Time;durP1;ratioP1;P1;durP2;ratioP2;P2;SDS_P1;SDS_P2;PMS_P1;PMS_P2;Temp;Humidity;BMP_temperature;BMP_pressure;BME280_temperature;BME280_humidity;BME280_pressure;Samples;Min_cycle;Max_cycle;Signal;HPM_P1;HPM_P2
2022/11/04 00:02:39;;;;;;;;;;;;;;;18.90;48.45;94698.38;10538915;28;1124;-49
2022/11/04 00:13:06;;;;;;;;;;;;;;;18.85;48.40;94729.97;10537199;28;1077;-50
2022/11/04 00:18:07;;;;;;;;;;;;;;;18.86;48.38;94736.75;10539170;28;1666;-50
2022/11/04 00:33:58;;;;;;;;;;;;;;;18.88;48.39;94755.63;10536131;28;1850;-52
2022/11/04 00:38:58;;;;;;;;;;;;;;;18.88;48.13;94754.84;10534906;28;1437;-54
2022/11/04 00:44:02;;;;;;;;;;;;;;;18.89;48.33;94756.44;10536326;28;1906;-52
2022/11/04 00:49:02;;;;;;;;;;;;;;;18.86;48.32;94765.66;10535444;28;1687;-52
2022/11/04 00:54:03;;;;;;;;;;;;;;;18.83;48.28;94768.88;10537092;28;977;-53
2022/11/04 00:59:03;;;;;;;;;;;;;;;18.86;48.09;94783.25;10535850;28;1658;-54
2022/11/04 01:04:03;;;;;;;;;;;;;;;18.88;47.88;94784.53;10535877;28;1975;-53
2022/11/04 01:09:05;;;;;;;;;;;;;;;18.85;48.14;94803.50;10533148;28;1547;-52
2022/11/04 01:14:05;;;;;;;;;;;;;;;18.83;48.20;94805.63;10538158;28;1215;-53
2022/11/04 01:19:05;;;;;;;;;;;;;;;18.84;48.24;94807.16;10530653;28;1627;-51
2022/11/04 01:24:05;;;;;;;;;;;;;;;18.82;48.14;94817.16;10541153;28;1998;-50
2022/11/04 01:29:06;;;;;;;;;;;;;;;18.79;48.07;94819.59;10532058;28;1623;-55
2022/11/04 01:34:06;;;;;;;;;;;;;;;18.77;48.10;94817.25;10536051;28;1199;-52
2022/11/04 01:39:07;;;;;;;;;;;;;;;18.77;48.20;94805.97;10527783;28;1651;-52
2022/11/04 01:44:27;;;;;;;;;;;;;;;18.75;48.37;94813.34;10533857;28;1967;-52
2022/11/04 01:49:31;;;;;;;;;;;;;;;18.80;48.14;94800.91;10533598;28;1655;-54
2022/11/04 01:54:32;;;;;;;;;;;;;;;18.81;48.09;94788.59;10534852;28;979;-53
2022/11/04 01:59:34;;;;;;;;;;;;;;;18.78;48.16;94776.00;10531627;28;1580;-50
2022/11/04 02:04:34;;;;;;;;;;;;;;;18.73;48.40;94782.13;10533468;28;1915;-50
2022/11/04 02:09:35;;;;;;;;;;;;;;;18.73;48.13;94779.50;10524855;28;1536;-51
2022/11/04 02:14:35;;;;;;;;;;;;;;;18.73;48.34;94773.47;10534971;28;1061;-51
2022/11/04 02:20:08;;;;;;;;;;;;;;;18.76;48.20;94778.94;10529957;28;1583;-53
2022/11/04 02:25:30;;;;;;;;;;;;;;;18.75;48.35;94782.63;10505911;28;1914;-50
2022/11/04 02:30:42;;;;;;;;;;;;;;;18.73;48.26;94784.75;10532749;28;1132;-51
2022/11/04 02:35:42;;;;;;;;;;;;;;;18.73;48.14;94783.97;10531258;28;1430;-51
2022/11/04 02:40:45;;;;;;;;;;;;;;;18.78;48.37;94792.56;10538711;28;1535;-50
2022/11/04 02:45:46;;;;;;;;;;;;;;;18.73;48.31;94791.84;10532571;28;1914;-50
2022/11/04 02:50:46;;;;;;;;;;;;;;;18.71;48.17;94797.41;10524535;28;1655;-52
2022/11/04 02:55:47;;;;;;;;;;;;;;;18.74;48.19;94794.19;10534518;28;991;-52
2022/11/04 03:00:48;;;;;;;;;;;;;;;18.72;48.28;94785.81;10528260;28;1452;-51
2022/11/04 03:05:49;;;;;;;;;;;;;;;18.68;48.30;94785.59;10537807;28;1967;-51
2022/11/04 03:10:50;;;;;;;;;;;;;;;18.70;48.24;94777.44;10532712;28;1658;-51
2022/11/04 03:15:51;;;;;;;;;;;;;;;18.71;48.22;94776.41;10540227;28;840;-48
2022/11/04 03:20:52;;;;;;;;;;;;;;;18.69;48.14;94768.78;10538268;28;1648;-53
2022/11/04 03:25:53;;;;;;;;;;;;;;;18.68;48.18;94785.59;10550057;28;1882;-52
2022/11/04 03:30:55;;;;;;;;;;;;;;;18.72;48.13;94788.44;10531861;28;1560;-52
2022/11/04 03:35:55;;;;;;;;;;;;;;;18.69;48.32;94789.78;10541868;28;1156;-52
2022/11/04 03:40:56;;;;;;;;;;;;;;;18.74;48.13;94775.03;10534841;28;1615;-52
2022/11/04 03:45:56;;;;;;;;;;;;;;;18.69;48.33;94768.03;10539053;28;1914;-50
2022/11/04 03:50:57;;;;;;;;;;;;;;;18.67;48.33;94776.16;10536165;28;1552;-49
2022/11/04 03:56:15;;;;;;;;;;;;;;;18.70;48.43;94774.81;10536373;28;1722;-52
2022/11/04 04:01:26;;;;;;;;;;;;;;;18.69;48.28;94773.28;10540456;28;1283;-53
2022/11/04 04:06:27;;;;;;;;;;;;;;;18.65;48.39;94761.75;10533123;28;1969;-53
2022/11/04 04:11:27;;;;;;;;;;;;;;;18.64;48.42;94761.00;10536126;28;1421;-53
2022/11/04 04:16:28;;;;;;;;;;;;;;;18.66;48.16;94747.56;10538554;28;1039;-51
2022/11/04 04:21:29;;;;;;;;;;;;;;;18.65;48.32;94751.25;10533444;28;1721;-50
2022/11/04 04:31:48;;;;;;;;;;;;;;;18.66;48.18;94771.19;10538373;28;1092;-50
2022/11/04 04:37:15;;;;;;;;;;;;;;;18.66;48.15;94763.31;10528110;28;1520;-52
2022/11/04 04:47:38;;;;;;;;;;;;;;;18.63;48.43;94758.63;10537342;28;1898;-50
2022/11/04 04:52:39;;;;;;;;;;;;;;;18.61;48.19;94772.06;10530737;28;1069;-49
2022/11/04 04:57:40;;;;;;;;;;;;;;;18.62;48.15;94778.09;10535988;28;1445;-50
2022/11/04 05:02:40;;;;;;;;;;;;;;;18.60;48.37;94785.47;10532205;28;1097;-53
2022/11/04 05:07:40;;;;;;;;;;;;;;;18.60;48.34;94781.00;10536293;28;1906;-51
2022/11/04 05:18:01;;;;;;;;;;;;;;;18.65;48.23;94788.00;10533835;28;1552;-52
2022/11/04 05:23:01;;;;;;;;;;;;;;;18.61;48.13;94777.31;10538532;28;1140;-52
2022/11/04 05:28:02;;;;;;;;;;;;;;;18.58;48.08;94772.63;10536853;28;1910;-52
2022/11/04 05:33:02;;;;;;;;;;;;;;;18.58;48.23;94766.59;10542857;28;1131;-51
2022/11/04 05:38:02;;;;;;;;;;;;;;;18.56;48.15;94758.22;10533499;28;1591;-53
2022/11/04 05:43:03;;;;;;;;;;;;;;;18.62;48.20;94778.09;10533627;28;1169;-52
2022/11/04 05:48:03;;;;;;;;;;;;;;;18.57;48.28;94797.31;10529926;28;1898;-52
2022/11/04 05:53:03;;;;;;;;;;;;;;;18.57;48.11;94793.88;10534899;28;1093;-51
2022/11/04 05:58:04;;;;;;;;;;;;;;;18.60;48.28;94781.00;10528714;28;1603;-50
2022/11/04 06:03:04;;;;;;;;;;;;;;;18.56;48.05;94794.97;10535328;28;1112;-49
2022/11/04 06:08:04;;;;;;;;;;;;;;;18.55;48.23;94798.66;10530942;28;1922;-52
2022/11/04 06:13:04;;;;;;;;;;;;;;;18.56;48.07;94782.63;10565605;28;1194;-54
2022/11/04 06:18:05;;;;;;;;;;;;;;;18.57;48.19;94817.50;10530040;28;1666;-51
2022/11/04 06:23:05;;;;;;;;;;;;;;;18.53;48.19;94821.75;10535708;28;1111;-49
2022/11/04 06:28:05;;;;;;;;;;;;;;;18.54;48.21;94808.38;10539478;28;1909;-52
2022/11/04 06:33:06;;;;;;;;;;;;;;;18.50;48.21;94806.59;10533579;28;1481;-52
2022/11/04 06:38:06;;;;;;;;;;;;;;;18.51;48.17;94808.16;10533901;28;1492;-52
2022/11/04 06:43:06;;;;;;;;;;;;;;;18.51;48.21;94824.69;10541156;28;1183;-53
2022/11/04 06:48:06;;;;;;;;;;;;;;;18.56;48.02;94839.59;10537993;28;1914;-54
2022/11/04 06:53:07;;;;;;;;;;;;;;;18.50;48.10;94832.84;10541726;28;1106;-48
2022/11/04 06:58:07;;;;;;;;;;;;;;;18.52;48.15;94821.00;10540732;28;1544;-51
2022/11/04 07:03:08;;;;;;;;;;;;;;;18.47;48.31;94802.69;10542241;28;1171;-53
2022/11/04 07:08:08;;;;;;;;;;;;;;;18.49;48.29;94802.41;10537292;28;1906;-54
2022/11/04 07:13:09;;;;;;;;;;;;;;;18.50;48.12;94801.34;10540798;28;1034;-53
2022/11/04 07:18:09;;;;;;;;;;;;;;;18.47;48.14;94826.31;10536359;28;1705;-52
2022/11/04 07:23:09;;;;;;;;;;;;;;;18.46;48.17;94832.63;10539602;28;1191;-51
2022/11/04 07:28:10;;;;;;;;;;;;;;;18.46;48.23;94851.00;10539812;28;1910;-52
2022/11/04 07:33:10;;;;;;;;;;;;;;;18.48;48.03;94848.88;10540194;28;1081;-54
2022/11/04 07:38:10;;;;;;;;;;;;;;;18.51;48.06;94869.28;10535456;28;1588;-53
2022/11/04 07:43:10;;;;;;;;;;;;;;;18.45;48.35;94856.50;10540284;28;1140;-52
2022/11/04 07:48:11;;;;;;;;;;;;;;;18.47;48.23;94864.88;10534548;28;1902;-50
2022/11/04 07:53:11;;;;;;;;;;;;;;;18.49;48.14;94868.00;10539705;28;1092;-53
2022/11/04 07:58:11;;;;;;;;;;;;;;;18.49;48.12;94889.00;10536353;28;1663;-53
2022/11/04 08:03:12;;;;;;;;;;;;;;;18.48;48.13;94885.63;10538271;28;1496;-52
2022/11/04 08:08:14;;;;;;;;;;;;;;;18.46;48.28;94879.06;10572633;27;1978;-51
2022/11/04 08:13:14;;;;;;;;;;;;;;;18.45;48.37;94853.88;10540757;28;1105;-52
2022/11/04 08:18:15;;;;;;;;;;;;;;;18.45;48.24;94846.00;10539013;28;1711;-53
2022/11/04 08:23:15;;;;;;;;;;;;;;;18.44;48.10;94850.47;10545123;28;1201;-49
2022/11/04 08:28:16;;;;;;;;;;;;;;;18.42;48.21;94826.31;10535380;28;1890;-50
2022/11/04 08:33:16;;;;;;;;;;;;;;;18.43;48.15;94819.25;10539244;28;1171;-51
2022/11/04 08:38:16;;;;;;;;;;;;;;;18.43;48.20;94819.25;10531120;28;1686;-49
2022/11/04 08:43:17;;;;;;;;;;;;;;;18.41;48.14;94819.53;10538290;28;1120;-51
2022/11/04 08:48:17;;;;;;;;;;;;;;;18.41;48.01;94813.50;10531112;28;1918;-51
2022/11/04 08:53:17;;;;;;;;;;;;;;;18.43;48.00;94787.75;10537039;28;1294;-52
2022/11/04 08:58:17;;;;;;;;;;;;;;;18.41;48.30;94785.44;10535525;28;1643;-52
2022/11/04 09:03:18;;;;;;;;;;;;;;;18.41;48.15;94785.44;10535843;28;1108;-53
2022/11/04 09:08:18;;;;;;;;;;;;;;;18.43;48.11;94793.00;10531057;28;1913;-50
2022/11/04 09:13:18;;;;;;;;;;;;;;;18.40;48.23;94780.47;10537036;28;1195;-53
2022/11/04 09:18:18;;;;;;;;;;;;;;;18.41;48.12;94777.56;10531534;28;1604;-51
2022/11/04 09:23:19;;;;;;;;;;;;;;;18.43;47.96;94787.75;10536406;28;1084;-51
2022/11/04 09:28:19;;;;;;;;;;;;;;;18.39;48.00;94784.94;10542231;28;1963;-50
2022/11/04 09:33:19;;;;;;;;;;;;;;;18.41;48.30;94776.75;10536507;28;1121;-53
2022/11/04 09:38:20;;;;;;;;;;;;;;;18.39;48.12;94789.38;10528698;28;1611;-54
2022/11/04 09:43:38;;;;;;;;;;;;;;;18.39;48.13;94798.03;10536103;28;1108;-54
2022/11/04 09:48:46;;;;;;;;;;;;;;;18.38;48.15;94804.34;10527806;28;1650;-52
2022/11/04 09:53:48;;;;;;;;;;;;;;;18.38;48.22;94801.72;10518211;28;1156;-55
2022/11/04 09:58:48;;;;;;;;;;;;;;;18.38;48.18;94806.19;10534132;28;1698;-50
2022/11/04 10:03:55;;;;;;;;;;;;;;;18.36;48.23;94798.59;10536521;28;1905;-52
2022/11/04 10:08:55;;;;;;;;;;;;;;;18.37;48.21;94784.44;10532491;28;1687;-54
2022/11/04 10:14:07;;;;;;;;;;;;;;;18.33;48.22;94774.78;10537335;28;1031;-53
2022/11/04 10:19:40;;;;;;;;;;;;;;;18.36;48.24;94776.84;10542298;28;1671;-50
2022/11/04 10:24:41;;;;;;;;;;;;;;;18.35;48.14;94783.16;10531287;28;1905;-51
2022/11/04 10:30:02;;;;;;;;;;;;;;;18.32;48.06;94773.22;10537859;28;1515;-52
2022/11/04 10:35:29;;;;;;;;;;;;;;;18.33;48.29;94765.06;10542410;28;1782;-53
2022/11/04 10:40:31;;;;;;;;;;;;;;;18.34;48.21;94742.25;10537179;28;1701;-54
2022/11/04 10:45:54;;;;;;;;;;;;;;;18.34;48.26;94726.50;10542024;28;1966;-51
2022/11/04 10:50:55;;;;;;;;;;;;;;;18.32;48.35;94737.25;10519781;28;1711;-51
2022/11/04 10:55:58;;;;;;;;;;;;;;;18.33;48.16;94751.16;10536756;28;1631;-50
2022/11/04 11:00:58;;;;;;;;;;;;;;;18.32;48.00;94744.38;10539970;28;1104;-52
2022/11/04 11:06:11;;;;;;;;;;;;;;;18.33;48.09;94748.53;10542418;28;1922;-53
2022/11/04 11:11:11;;;;;;;;;;;;;;;18.32;48.30;94747.00;10540982;28;1504;-52
2022/11/04 11:16:12;;;;;;;;;;;;;;;18.29;48.38;94752.78;10543960;28;1615;-51
2022/11/04 11:21:14;;;;;;;;;;;;;;;18.29;48.38;94753.56;10542953;28;1291;-50
2022/11/04 11:26:21;;;;;;;;;;;;;;;18.31;48.19;94763.78;10540266;28;1898;-52
2022/11/04 11:31:25;;;;;;;;;;;;;;;18.28;48.29;94767.75;10534159;28;1106;-52
2022/11/04 11:36:26;;;;;;;;;;;;;;;18.28;48.35;94778.22;10534386;28;1473;-52
2022/11/04 11:41:32;;;;;;;;;;;;;;;18.28;48.25;94774.84;10535843;28;1743;-51
2022/11/04 11:46:33;;;;;;;;;;;;;;;18.28;48.31;94782.72;10539886;28;1973;-54
2022/11/04 11:51:34;;;;;;;;;;;;;;;18.28;48.46;94778.22;10530462;28;1638;-53
2022/11/04 11:56:37;;;;;;;;;;;;;;;18.28;48.21;94778.22;10534929;28;1643;-52
2022/11/04 12:01:39;;;;;;;;;;;;;;;18.28;48.07;94772.22;10539187;28;1260;-52
2022/11/04 12:06:47;;;;;;;;;;;;;;;18.28;48.20;94772.22;10537125;28;1906;-50
2022/11/04 12:12:06;;;;;;;;;;;;;;;18.29;48.17;94769.31;10536981;28;1485;-50
2022/11/04 12:17:25;;;;;;;;;;;;;;;18.28;48.20;94780.09;10535540;28;1619;-53
2022/11/04 12:22:33;;;;;;;;;;;;;;;18.28;48.17;94769.59;10531781;28;1160;-54
2022/11/04 12:27:38;;;;;;;;;;;;;;;18.27;48.13;94757.53;10533166;28;1906;-53
2022/11/04 12:32:39;;;;;;;;;;;;;;;18.30;48.16;94749.13;10538058;28;1408;-52
2022/11/04 12:37:39;;;;;;;;;;;;;;;18.26;48.24;94738.38;10531619;28;1129;-51
2022/11/04 12:42:45;;;;;;;;;;;;;;;18.27;48.05;94749.66;10539685;28;1654;-51
2022/11/04 12:47:46;;;;;;;;;;;;;;;18.27;47.98;94781.16;10533326;28;1914;-51
2022/11/04 12:52:59;;;;;;;;;;;;;;;18.27;48.12;94802.13;10537488;28;1128;-48
2022/11/04 12:58:05;;;;;;;;;;;;;;;18.26;48.22;94821.56;10533936;28;1651;-53
2022/11/04 13:03:13;;;;;;;;;;;;;;;18.25;48.18;94812.13;10531956;28;1564;-49
2022/11/04 13:08:16;;;;;;;;;;;;;;;18.24;48.19;94810.56;10566628;27;1905;-52
2022/11/04 13:13:17;;;;;;;;;;;;;;;18.24;48.05;94815.81;10536632;28;1177;-50
2022/11/04 13:18:18;;;;;;;;;;;;;;;18.24;48.07;94829.69;10533385;28;1667;-53
2022/11/04 13:23:27;;;;;;;;;;;;;;;18.23;47.94;94832.63;10526528;28;1109;-51
2022/11/04 13:28:27;;;;;;;;;;;;;;;18.22;48.05;94841.53;10529046;28;1976;-52
2022/11/04 13:33:33;;;;;;;;;;;;;;;18.21;48.02;94835.53;10536136;28;1147;-50
2022/11/04 13:38:35;;;;;;;;;;;;;;;18.21;48.10;94834.75;10531987;28;2607;-51
2022/11/04 13:43:38;;;;;;;;;;;;;;;18.21;48.18;94837.34;10536038;28;1093;-53
2022/11/04 13:48:41;;;;;;;;;;;;;;;18.20;48.14;94841.03;10534275;28;1926;-50
2022/11/04 13:53:43;;;;;;;;;;;;;;;18.22;48.01;94847.56;10534359;28;1195;-52
2022/11/04 13:58:47;;;;;;;;;;;;;;;18.19;48.16;94839.47;10530197;28;1653;-52
2022/11/04 14:04:01;;;;;;;;;;;;;;;18.17;47.96;94834.53;10534404;28;1918;-49
2022/11/04 14:09:20;;;;;;;;;;;;;;;18.20;48.13;94835.78;10534616;28;1567;-48
2022/11/04 14:14:20;;;;;;;;;;;;;;;18.19;48.00;94842.09;10531801;28;1085;-52
2022/11/04 14:19:54;;;;;;;;;;;;;;;18.17;48.29;94841.59;10535093;28;1651;-52
2022/11/04 14:24:57;;;;;;;;;;;;;;;18.16;48.17;94832.94;10506025;28;1971;-52
2022/11/04 14:29:58;;;;;;;;;;;;;;;18.19;48.09;94836.84;10534224;28;1623;-52
2022/11/04 14:34:59;;;;;;;;;;;;;;;18.18;47.84;94833.44;10533384;28;1531;-52
2022/11/04 14:40:00;;;;;;;;;;;;;;;18.15;48.00;94835.84;10532370;28;1521;-50
2022/11/04 14:45:00;;;;;;;;;;;;;;;18.19;47.99;94837.66;10534480;28;1961;-53
2022/11/04 14:50:01;;;;;;;;;;;;;;;18.16;48.13;94822.47;10533533;28;1647;-50
2022/11/04 14:55:05;;;;;;;;;;;;;;;18.16;47.93;94829.53;10528598;28;1635;-51
2022/11/04 15:00:21;;;;;;;;;;;;;;;18.14;47.99;94829.03;10566647;28;1243;-50
2022/11/04 15:05:22;;;;;;;;;;;;;;;18.14;48.07;94829.03;10545419;28;1879;-51
2022/11/04 15:10:26;;;;;;;;;;;;;;;18.13;48.15;94828.28;10539718;28;1738;-51
2022/11/04 15:15:29;;;;;;;;;;;;;;;18.12;48.03;94831.16;10544186;28;1046;-51
2022/11/04 15:20:30;;;;;;;;;;;;;;;18.13;48.08;94840.59;10539685;28;1942;-52
2022/11/04 15:25:31;;;;;;;;;;;;;;;18.11;47.97;94843.50;10545270;28;1918;-51
2022/11/04 15:30:31;;;;;;;;;;;;;;;18.14;48.12;94850.00;10537763;28;1382;-51
2022/11/04 15:35:32;;;;;;;;;;;;;;;18.13;48.01;94844.00;10543124;28;1141;-49
2022/11/04 15:40:33;;;;;;;;;;;;;;;18.11;48.07;94845.34;10531137;28;1608;-52
2022/11/04 15:45:45;;;;;;;;;;;;;;;18.12;48.02;94857.38;10540775;28;1980;-53
2022/11/04 15:50:45;;;;;;;;;;;;;;;18.12;47.91;94857.38;10539177;28;1584;-52
2022/11/04 15:55:53;;;;;;;;;;;;;;;18.10;48.03;94857.66;10538589;28;956;-53
2022/11/04 16:00:53;;;;;;;;;;;;;;;18.09;48.12;94852.72;10538105;28;1619;-52
2022/11/04 16:06:04;;;;;;;;;;;;;;;18.10;48.12;94854.25;10535349;28;1972;-50
2022/11/04 16:11:07;;;;;;;;;;;;;;;18.09;47.91;94847.47;10533497;28;1484;-52
2022/11/04 16:16:18;;;;;;;;;;;;;;;18.08;48.05;94849.31;10538336;28;1045;-54
2022/11/04 16:21:25;;;;;;;;;;;;;;;18.06;47.92;94850.63;10532749;28;1702;-50
2022/11/04 16:26:30;;;;;;;;;;;;;;;18.06;47.99;94851.41;10536711;28;1910;-51
2022/11/04 16:31:31;;;;;;;;;;;;;;;18.07;47.97;94860.06;10533581;28;1675;-54
2022/11/04 16:36:32;;;;;;;;;;;;;;;18.06;47.95;94864.53;10533009;28;1461;-53
2022/11/04 16:41:33;;;;;;;;;;;;;;;18.06;47.90;94875.03;10535388;28;1366;-49
2022/11/04 16:46:33;;;;;;;;;;;;;;;18.06;47.93;94879.47;10535085;28;1914;-53
2022/11/04 16:51:34;;;;;;;;;;;;;;;18.07;48.04;94886.31;10535375;28;1307;-54
2022/11/04 16:56:34;;;;;;;;;;;;;;;18.05;48.07;94888.41;10533958;28;1750;-52
2022/11/04 17:01:34;;;;;;;;;;;;;;;18.04;48.06;94890.25;10539324;28;1253;-53
2022/11/04 17:06:35;;;;;;;;;;;;;;;18.04;47.89;94899.94;10532510;28;1910;-50
2022/11/04 17:11:35;;;;;;;;;;;;;;;18.03;47.95;94906.28;10535389;28;1611;-51
2022/11/04 17:16:35;;;;;;;;;;;;;;;18.03;48.03;94912.31;10537928;28;1659;-52
2022/11/04 17:21:35;;;;;;;;;;;;;;;18.04;47.87;94915.69;10530300;28;1140;-51
2022/11/04 17:26:36;;;;;;;;;;;;;;;18.03;47.92;94914.13;10531286;28;1914;-49
2022/11/04 17:31:36;;;;;;;;;;;;;;;18.02;48.03;94925.69;10535556;28;1152;-50
2022/11/04 17:36:37;;;;;;;;;;;;;;;18.02;47.93;94928.28;10534346;28;1461;-53
2022/11/04 17:46:59;;;;;;;;;;;;;;;18.00;48.08;94925.16;10536216;28;1914;-52
2022/11/04 17:52:00;;;;;;;;;;;;;;;18.02;47.90;94936.16;10542340;28;1653;-52
2022/11/04 17:57:00;;;;;;;;;;;;;;;18.00;47.75;94933.03;10528885;28;1623;-54
2022/11/04 18:02:00;;;;;;;;;;;;;;;17.99;47.85;94932.25;10535576;28;1116;-50
2022/11/04 18:07:00;;;;;;;;;;;;;;;17.98;47.85;94945.63;10532656;28;1973;-50
2022/11/04 18:17:23;;;;;;;;;;;;;;;17.97;47.75;94957.97;10532304;28;1615;-49
2022/11/04 18:22:24;;;;;;;;;;;;;;;17.98;47.98;94962.16;10534515;28;1171;-50
2022/11/04 18:27:24;;;;;;;;;;;;;;;17.97;47.91;94971.06;10515760;28;1918;-52
2022/11/04 18:32:24;;;;;;;;;;;;;;;17.96;47.99;94976.59;10532511;28;1472;-50
2022/11/04 18:37:25;;;;;;;;;;;;;;;17.96;47.83;94985.25;10543011;28;1152;-52
2022/11/04 18:42:25;;;;;;;;;;;;;;;17.97;47.84;94991.28;10543124;28;1639;-50
2022/11/04 18:47:25;;;;;;;;;;;;;;;17.95;47.92;94990.78;10544372;28;1905;-50
2022/11/04 18:52:25;;;;;;;;;;;;;;;17.95;47.87;94990.78;10542532;28;1081;-49
2022/11/04 18:57:26;;;;;;;;;;;;;;;17.95;47.89;94998.66;10544473;28;1563;-53
2022/11/04 19:02:26;;;;;;;;;;;;;;;17.94;47.96;95004.94;10543078;28;1090;-56
2022/11/04 19:07:26;;;;;;;;;;;;;;;17.94;47.81;94997.06;10544717;28;1914;-50
2022/11/04 19:17:45;;;;;;;;;;;;;;;17.93;47.83;95026.97;10537889;28;1841;-52
2022/11/04 19:22:46;;;;;;;;;;;;;;;17.93;47.78;95033.00;10540992;28;1104;-54
2022/11/04 19:27:46;;;;;;;;;;;;;;;17.92;47.66;95043.75;10538371;28;1898;-51
2022/11/04 19:32:54;;;;;;;;;;;;;;;17.91;47.74;95050.06;10541682;28;1159;-53
2022/11/04 19:37:54;;;;;;;;;;;;;;;17.91;47.78;95050.84;10530465;28;1603;-50
2022/11/04 19:43:09;;;;;;;;;;;;;;;17.92;47.79;95054.25;10537541;28;1563;-52
2022/11/04 19:48:10;;;;;;;;;;;;;;;17.91;47.78;95076.28;10538461;28;1906;-48
2022/11/04 19:53:10;;;;;;;;;;;;;;;17.89;47.72;95085.19;10539794;28;1160;-52
2022/11/04 19:58:10;;;;;;;;;;;;;;;17.89;47.75;95084.41;10537178;28;1599;-48
2022/11/04 20:03:11;;;;;;;;;;;;;;;17.88;47.74;95083.66;10533364;28;1452;-50
2022/11/04 20:08:11;;;;;;;;;;;;;;;17.88;47.70;95093.34;10536567;28;1970;-53
2022/11/04 20:18:31;;;;;;;;;;;;;;;17.87;47.70;95103.03;10542635;28;1603;-52
2022/11/04 20:23:31;;;;;;;;;;;;;;;17.86;47.72;95106.72;10540188;28;1092;-50
2022/11/04 20:28:32;;;;;;;;;;;;;;;17.85;47.72;95113.00;10538380;28;1902;-49
2022/11/04 20:33:32;;;;;;;;;;;;;;;17.86;47.69;95134.78;10536762;28;1389;-51
2022/11/04 20:38:33;;;;;;;;;;;;;;;17.84;47.61;95135.06;10530668;28;1624;-50
2022/11/04 20:43:33;;;;;;;;;;;;;;;17.85;47.61;95141.06;10537617;28;1093;-53
2022/11/04 20:48:35;;;;;;;;;;;;;;;17.83;47.73;95137.94;10536349;28;1902;-53
2022/11/04 20:53:35;;;;;;;;;;;;;;;17.84;47.69;95150.00;10537220;28;1089;-49
2022/11/04 20:58:35;;;;;;;;;;;;;;;17.82;47.62;95158.13;10534598;28;1422;-51
2022/11/04 21:03:36;;;;;;;;;;;;;;;17.82;47.47;95162.59;10537965;28;1183;-50
2022/11/04 21:08:36;;;;;;;;;;;;;;;17.82;47.64;95158.13;10534108;28;1906;-53
2022/11/04 21:13:36;;;;;;;;;;;;;;;17.81;47.55;95158.38;10537189;28;1093;-53
2022/11/04 21:18:36;;;;;;;;;;;;;;;17.81;47.59;95177.53;10532068;28;1619;-52
2022/11/04 21:23:37;;;;;;;;;;;;;;;17.81;47.60;95179.34;10536387;28;837;-49
2022/11/04 21:28:38;;;;;;;;;;;;;;;17.79;47.46;95179.63;10535440;28;1890;-51
2022/11/04 21:33:38;;;;;;;;;;;;;;;17.80;47.36;95180.44;10535980;28;1449;-52
2022/11/04 21:38:39;;;;;;;;;;;;;;;17.78;47.61;95188.53;10532909;28;1473;-51
2022/11/04 21:43:39;;;;;;;;;;;;;;;17.78;47.54;95188.53;10541806;28;1159;-53
2022/11/04 21:48:39;;;;;;;;;;;;;;;17.78;47.57;95199.03;10534864;28;1965;-52
2022/11/04 21:53:40;;;;;;;;;;;;;;;17.77;47.30;95194.84;10538851;28;975;-50
2022/11/04 21:58:41;;;;;;;;;;;;;;;17.77;47.54;95187.00;10539253;28;1808;-49
2022/11/04 22:03:42;;;;;;;;;;;;;;;17.76;47.38;95188.03;10538652;28;1484;-50
2022/11/04 22:08:43;;;;;;;;;;;;;;;17.74;47.55;95192.75;10528655;28;1909;-50
2022/11/04 22:13:43;;;;;;;;;;;;;;;17.75;47.39;95189.09;10548698;28;1097;-52
2022/11/04 22:18:43;;;;;;;;;;;;;;;17.72;47.27;95184.38;10545998;28;1659;-52
2022/11/04 22:23:44;;;;;;;;;;;;;;;17.73;47.38;95191.19;10549404;28;1062;-50
2022/11/04 22:28:44;;;;;;;;;;;;;;;17.72;47.34;95188.84;10547033;28;1960;-51
2022/11/04 22:33:44;;;;;;;;;;;;;;;17.73;47.52;95203.50;10548894;28;1129;-54
2022/11/04 22:38:44;;;;;;;;;;;;;;;17.72;47.46;95210.59;10543893;28;1615;-51
2022/11/04 22:43:45;;;;;;;;;;;;;;;17.70;47.47;95202.22;10548186;28;1116;-51
2022/11/04 22:48:45;;;;;;;;;;;;;;;17.70;47.48;95207.44;10547902;28;1922;-51
2022/11/04 22:53:46;;;;;;;;;;;;;;;17.70;47.26;95217.94;10548060;28;980;-50
2022/11/04 22:58:46;;;;;;;;;;;;;;;17.71;47.34;95222.13;10549577;28;1694;-50
2022/11/04 23:03:46;;;;;;;;;;;;;;;17.71;47.34;95232.63;10548444;28;1485;-52
2022/11/04 23:08:56;;;;;;;;;;;;;;;17.69;47.51;95232.09;10545573;28;1969;-52
2022/11/04 23:19:16;;;;;;;;;;;;;;;17.69;47.19;95229.47;10544896;28;1611;-52
2022/11/04 23:40:14;;;;;;;;;;;;;;;17.66;47.19;95240.50;10538357;28;1452;-53
